createdAt,value
2023-04-27T00:00:38.985Z,4.03
2023-04-27T00:03:06.350Z,2.83
2023-04-27T00:05:41.538Z,3.15
2023-04-27T00:08:08.934Z,3.38
2023-04-27T00:13:02.876Z,3.25
2023-04-27T00:15:29.977Z,3.35
2023-04-27T00:17:59.446Z,3.28
2023-04-27T00:20:26.694Z,3.40
2023-04-27T00:22:56.675Z,3.17
2023-04-27T00:25:23.675Z,3.22
2023-04-27T00:27:54.996Z,3.72
2023-04-27T00:30:25.056Z,3.78
2023-04-27T00:32:53.515Z,3.60
2023-04-27T00:35:20.791Z,3.30
2023-04-27T00:37:50.034Z,3.53
2023-04-27T00:40:17.022Z,3.90
2023-04-27T00:42:46.136Z,3.47
2023-04-27T00:45:13.639Z,3.25
2023-04-27T00:47:41.186Z,2.97
2023-04-27T00:50:13.173Z,3.08
2023-04-27T00:52:40.792Z,3.50
2023-04-27T00:55:09.800Z,3.38
2023-04-27T00:57:37.312Z,3.50
2023-04-27T01:00:07.461Z,2.97
2023-04-27T01:02:40.273Z,3.30
2023-04-27T01:05:08.513Z,3.22
2023-04-27T01:07:39.514Z,3.17
2023-04-27T01:10:12.035Z,3.40
2023-04-27T01:12:41.183Z,3.70
2023-04-27T01:15:08.929Z,3.50
2023-04-27T01:17:35.963Z,3.55
2023-04-27T01:20:10.726Z,3.88
2023-04-27T01:22:40.796Z,3.63
2023-04-27T01:25:09.752Z,3.90
2023-04-27T01:27:38.926Z,3.35
2023-04-27T01:30:06.755Z,3.60
2023-04-27T01:32:33.773Z,3.58
2023-04-27T01:35:00.676Z,3.65
2023-04-27T01:37:27.602Z,3.50
2023-04-27T01:39:54.619Z,3.58
2023-04-27T01:42:21.486Z,3.63
2023-04-27T01:44:49.133Z,4.20
2023-04-27T01:47:17.332Z,4.20
2023-04-27T01:49:44.418Z,3.97
2023-04-27T01:52:13.512Z,3.80
2023-04-27T01:54:40.457Z,3.67
2023-04-27T01:57:07.373Z,4.00
2023-04-27T01:59:34.394Z,3.60
2023-04-27T02:04:33.957Z,4.20
2023-04-27T02:07:03.453Z,3.83
2023-04-27T02:09:32.538Z,3.67
2023-04-27T02:11:59.459Z,3.80
2023-04-27T02:14:28.482Z,3.88
2023-04-27T02:16:55.698Z,3.67
2023-04-27T02:19:23.356Z,3.65
2023-04-27T02:21:50.840Z,3.42
2023-04-27T02:24:19.930Z,3.40
2023-04-27T02:26:49.212Z,3.53
2023-04-27T02:31:48.691Z,3.58
2023-04-27T02:34:15.676Z,3.10
2023-04-27T02:36:44.879Z,3.50
2023-04-27T02:39:12.057Z,3.60
2023-04-27T02:41:43.655Z,3.67
2023-04-27T02:44:10.584Z,3.75
2023-04-27T02:46:37.527Z,3.70
2023-04-27T02:49:04.479Z,4.68
2023-04-27T02:51:31.366Z,3.90
2023-04-27T02:53:58.398Z,4.18
2023-04-27T02:56:25.477Z,3.60
2023-04-27T03:03:51.409Z,3.72
2023-04-27T03:06:20.829Z,3.67
2023-04-27T03:08:50.416Z,4.38
2023-04-27T03:11:17.283Z,3.70
2023-04-27T03:13:44.471Z,3.90
2023-04-27T03:16:11.843Z,4.03
2023-04-27T03:18:41.822Z,3.97
2023-04-27T03:21:09.384Z,3.95
2023-04-27T03:23:37.033Z,4.18
2023-04-27T03:26:08.581Z,3.60
2023-04-27T03:28:36.168Z,4.32
2023-04-27T03:31:10.905Z,4.45
2023-04-27T03:33:38.576Z,4.00
2023-04-27T03:36:06.792Z,3.88
2023-04-27T03:38:39.283Z,4.47
2023-04-27T03:41:06.699Z,3.97
2023-04-27T03:46:00.481Z,4.40
2023-04-27T03:48:28.029Z,4.40
2023-04-27T03:50:55.972Z,4.70
2023-04-27T03:53:25.189Z,5.13
2023-04-27T03:55:52.309Z,4.60
2023-04-27T03:58:19.284Z,4.45
2023-04-27T04:01:10.199Z,4.25
2023-04-27T04:03:37.683Z,4.32
2023-04-27T04:06:07.696Z,3.42
2023-04-27T04:08:34.697Z,3.30
2023-04-27T04:11:01.702Z,3.78
2023-04-27T04:13:29.376Z,3.58
2023-04-27T04:16:07.116Z,3.22
2023-04-27T04:18:35.223Z,3.25
2023-04-27T04:21:03.078Z,3.08
2023-04-27T04:23:33.997Z,3.10
2023-04-27T04:26:03.137Z,3.65
2023-04-27T04:28:33.897Z,3.00
2023-04-27T04:31:06.038Z,3.00
2023-04-27T04:33:37.256Z,3.40
2023-04-27T04:36:05.099Z,3.88
2023-04-27T04:38:34.641Z,3.40
2023-04-27T04:41:04.075Z,3.25
2023-04-27T04:43:33.836Z,3.00
2023-04-27T04:46:04.199Z,3.45
2023-04-27T04:48:31.206Z,3.63
2023-04-27T04:50:58.180Z,3.53
2023-04-27T04:53:27.602Z,3.50
2023-04-27T04:55:56.035Z,3.20
2023-04-27T04:58:23.171Z,4.10
2023-04-27T05:00:50.226Z,3.75
2023-04-27T05:03:17.494Z,3.17
2023-04-27T05:05:44.891Z,3.53
2023-04-27T05:08:11.744Z,3.45
2023-04-27T05:10:38.639Z,3.70
2023-04-27T05:13:07.775Z,3.70
2023-04-27T05:15:34.697Z,3.83
2023-04-27T05:18:03.786Z,3.83
2023-04-27T05:20:35.799Z,4.00
2023-04-27T05:23:04.870Z,4.18
2023-04-27T05:25:32.696Z,5.60
2023-04-27T05:27:59.629Z,5.60
2023-04-27T05:30:27.293Z,5.90
2023-04-27T05:32:54.340Z,5.20
2023-04-27T05:35:23.574Z,5.38
2023-04-27T05:37:50.410Z,5.25
2023-04-27T05:40:17.514Z,5.68
2023-04-27T05:42:46.669Z,5.50
2023-04-27T05:45:14.065Z,4.57
2023-04-27T05:47:45.725Z,4.88
2023-04-27T05:50:12.871Z,4.68
2023-04-27T05:52:45.288Z,4.90
2023-04-27T05:55:12.193Z,4.97
2023-04-27T05:57:40.308Z,4.78
2023-04-27T06:00:11.333Z,5.38
2023-04-27T06:02:42.644Z,5.20
2023-04-27T06:05:10.188Z,4.60
2023-04-27T06:07:39.586Z,5.03
2023-04-27T06:10:07.714Z,5.70
2023-04-27T06:12:34.630Z,7.38
2023-04-27T06:15:03.815Z,5.32
2023-04-27T06:17:33.195Z,5.15
2023-04-27T06:20:00.290Z,5.53
2023-04-27T06:22:27.341Z,6.47
2023-04-27T06:24:54.248Z,7.68
2023-04-27T06:27:21.159Z,5.07
2023-04-27T06:29:48.183Z,5.40
2023-04-27T06:32:15.387Z,5.07
2023-04-27T06:34:44.512Z,4.93
2023-04-27T06:37:11.431Z,4.88
2023-04-27T06:39:38.852Z,4.40
2023-04-27T06:42:07.966Z,4.60
2023-04-27T06:44:34.785Z,4.97
2023-04-27T06:47:02.404Z,4.57
2023-04-27T06:49:31.656Z,4.63
2023-04-27T06:52:06.303Z,4.63
2023-04-27T06:54:33.228Z,4.30
2023-04-27T06:57:00.115Z,4.15
2023-04-27T06:59:27.392Z,5.10
2023-04-27T07:06:48.712Z,4.20
2023-04-27T07:09:26.461Z,4.10
2023-04-27T07:11:55.132Z,5.28
2023-04-27T07:14:22.701Z,4.50
2023-04-27T07:16:49.688Z,5.00
2023-04-27T07:19:16.978Z,4.80
2023-04-27T07:24:10.999Z,5.25
2023-04-27T07:26:37.925Z,4.55
2023-04-27T07:29:14.411Z,4.68
2023-04-27T07:31:52.226Z,4.60
2023-04-27T07:34:24.026Z,5.25
2023-04-27T07:36:54.136Z,5.38
2023-04-27T07:39:21.305Z,4.47
2023-04-27T07:41:50.829Z,4.68
2023-04-27T07:44:21.730Z,4.68
2023-04-27T07:46:49.611Z,4.63
2023-04-27T07:49:16.821Z,4.47
2023-04-27T07:51:46.226Z,4.68
2023-04-27T07:54:15.535Z,4.80
2023-04-27T07:56:45.681Z,4.35
2023-04-27T07:59:12.942Z,4.20
2023-04-27T08:01:40.071Z,4.75
2023-04-27T08:04:09.651Z,5.18
2023-04-27T08:06:39.573Z,4.38
2023-04-27T08:09:06.835Z,5.05
2023-04-27T08:11:33.782Z,4.28
2023-04-27T08:14:00.681Z,4.63
2023-04-27T08:16:28.257Z,5.10
2023-04-27T08:18:55.512Z,4.80
2023-04-27T08:21:24.683Z,4.63
2023-04-27T08:23:51.683Z,4.60
2023-04-27T08:26:18.642Z,4.00
2023-04-27T08:28:49.282Z,4.25
2023-04-27T08:31:16.450Z,4.35
2023-04-27T08:33:45.845Z,4.00
2023-04-27T08:36:15.431Z,4.60
2023-04-27T08:38:42.362Z,3.80
2023-04-27T08:41:20.817Z,3.95
2023-04-27T08:43:53.359Z,3.80
2023-04-27T08:46:21.478Z,4.65
2023-04-27T08:48:52.278Z,4.78
2023-04-27T08:51:20.364Z,4.00
2023-04-27T08:53:59.297Z,4.20
2023-04-27T08:56:31.401Z,3.45
2023-04-27T08:58:59.077Z,3.53
2023-04-27T09:01:29.156Z,3.60
2023-04-27T09:04:00.699Z,3.53
2023-04-27T09:06:35.688Z,3.80
2023-04-27T09:09:04.026Z,3.53
2023-04-27T09:11:32.623Z,3.45
2023-04-27T09:14:01.225Z,3.53
2023-04-27T09:16:29.627Z,3.70
2023-04-27T09:18:58.432Z,3.35
2023-04-27T09:21:30.036Z,3.25
2023-04-27T09:23:58.615Z,3.20
2023-04-27T09:26:31.707Z,2.80
2023-04-27T09:28:58.697Z,2.58
2023-04-27T09:31:35.379Z,2.55
2023-04-27T09:34:02.909Z,2.40
2023-04-27T09:36:30.816Z,3.05
2023-04-27T09:38:59.031Z,2.53
2023-04-27T09:41:28.654Z,2.55
2023-04-27T09:43:57.817Z,2.58
2023-04-27T09:46:26.537Z,2.60
2023-04-27T09:48:55.384Z,2.58
2023-04-27T09:51:22.324Z,2.80
2023-04-27T09:53:56.515Z,2.60
2023-04-27T09:56:31.001Z,3.42
2023-04-27T09:59:01.115Z,2.95
2023-04-27T10:01:41.768Z,2.58
2023-04-27T10:04:14.370Z,2.80
2023-04-27T10:07:03.726Z,2.67
2023-04-27T10:09:40.082Z,2.85
2023-04-27T10:12:18.912Z,2.75
2023-04-27T10:14:55.583Z,5.13
2023-04-27T10:17:34.094Z,2.53
2023-04-27T10:20:09.861Z,2.70
2023-04-27T10:22:40.943Z,2.78
2023-04-27T10:25:26.750Z,2.95
2023-04-27T10:27:59.074Z,3.00
2023-04-27T10:30:31.302Z,2.95
2023-04-27T10:33:00.483Z,2.67
2023-04-27T10:35:47.608Z,2.95
2023-04-27T10:38:23.812Z,3.05
2023-04-27T10:41:02.485Z,2.70
2023-04-27T10:43:32.590Z,2.85
2023-04-27T10:46:13.088Z,2.60
2023-04-27T10:48:44.698Z,3.17
2023-04-27T10:51:16.651Z,2.58
2023-04-27T10:53:52.119Z,2.70
2023-04-27T10:56:19.707Z,2.13
2023-04-27T10:58:49.348Z,2.38
2023-04-27T11:01:27.741Z,2.65
2023-04-27T11:03:58.913Z,2.60
2023-04-27T11:06:30.381Z,2.20
2023-04-27T11:09:00.578Z,2.20
2023-04-27T11:11:27.644Z,2.20
2023-04-27T11:13:57.154Z,2.25
2023-04-27T11:16:24.462Z,2.30
2023-04-27T11:18:54.444Z,3.00
2023-04-27T11:21:23.479Z,2.67
2023-04-27T11:23:50.832Z,2.90
2023-04-27T11:29:10.034Z,2.58
2023-04-27T11:31:47.663Z,2.17
2023-04-27T11:34:22.573Z,2.20
2023-04-27T11:37:18.037Z,2.10
2023-04-27T11:39:46.373Z,2.50
2023-04-27T11:42:22.272Z,2.83
2023-04-27T11:44:54.377Z,2.45
2023-04-27T11:47:23.000Z,2.20
2023-04-27T11:49:58.759Z,2.60
2023-04-27T11:52:32.313Z,2.50
2023-04-27T11:55:00.603Z,2.20
2023-04-27T11:57:32.840Z,2.60
2023-04-27T12:00:14.681Z,2.20
2023-04-27T12:02:43.797Z,2.08
2023-04-27T12:05:13.247Z,2.20
2023-04-27T12:07:43.619Z,2.20
2023-04-27T12:10:10.962Z,1.98
2023-04-27T12:15:08.488Z,2.42
2023-04-27T12:17:35.933Z,2.28
2023-04-27T12:20:03.068Z,2.10
2023-04-27T12:22:30.199Z,2.00
2023-04-27T12:27:26.597Z,3.30
2023-04-27T12:32:27.627Z,2.42
2023-04-27T12:34:56.758Z,1.92
2023-04-27T12:37:26.225Z,3.17
2023-04-27T12:39:56.461Z,2.28
2023-04-27T12:42:26.252Z,2.28
2023-04-27T12:44:53.963Z,2.55
2023-04-27T12:47:45.759Z,2.05
2023-04-27T12:50:09.941Z,2.85
2023-04-27T12:52:36.892Z,2.08
2023-04-27T12:55:05.090Z,2.00
2023-04-27T12:57:32.038Z,2.20
2023-04-27T13:00:02.191Z,1.90
2023-04-27T13:02:29.665Z,2.00
2023-04-27T13:04:56.973Z,1.90
2023-04-27T13:07:26.473Z,2.03
2023-04-27T13:09:53.546Z,2.15
2023-04-27T13:12:22.692Z,2.25
2023-04-27T13:14:49.823Z,2.15
2023-04-27T13:17:17.586Z,1.90
2023-04-27T13:19:44.563Z,2.00
2023-04-27T13:22:11.747Z,2.00
2023-04-27T13:27:07.960Z,2.20
2023-04-27T13:29:34.859Z,1.80
2023-04-27T13:32:01.945Z,1.90
2023-04-27T13:37:00.819Z,1.80
2023-04-27T13:39:33.141Z,1.90
2023-04-27T13:42:02.270Z,2.00
2023-04-27T13:44:31.813Z,1.90
2023-04-27T13:46:58.953Z,2.00
2023-04-27T13:49:26.026Z,1.90
2023-04-27T13:51:55.377Z,2.10
2023-04-27T13:54:22.373Z,2.03
2023-04-27T13:56:49.263Z,1.88
2023-04-27T13:59:16.750Z,1.70
2023-04-27T14:01:46.032Z,2.00
2023-04-27T14:04:15.419Z,2.00
2023-04-27T14:06:42.425Z,2.15
2023-04-27T14:09:11.880Z,2.10
2023-04-27T14:11:52.326Z,2.60
2023-04-27T14:14:25.429Z,2.00
2023-04-27T14:16:56.829Z,2.10
2023-04-27T14:19:24.067Z,1.80
2023-04-27T14:21:53.678Z,2.10
2023-04-27T14:24:20.662Z,1.80
2023-04-27T14:26:49.407Z,1.90
2023-04-27T14:29:19.452Z,1.83
2023-04-27T14:31:47.277Z,1.75
2023-04-27T14:34:17.286Z,1.92
2023-04-27T14:36:45.409Z,1.83
2023-04-27T14:39:13.588Z,1.88
2023-04-27T14:41:40.920Z,2.10
2023-04-27T14:46:39.741Z,1.92
2023-04-27T14:49:06.678Z,1.92
2023-04-27T14:51:33.724Z,1.88
2023-04-27T14:54:04.314Z,1.80
2023-04-27T14:56:33.980Z,1.95
2023-04-27T14:59:01.295Z,1.80
2023-04-27T15:01:28.349Z,2.00
2023-04-27T15:03:56.667Z,2.00
2023-04-27T15:06:30.354Z,1.85
2023-04-27T15:08:57.751Z,1.95
2023-04-27T15:11:24.721Z,1.90
2023-04-27T15:13:51.725Z,2.58
2023-04-27T15:16:21.265Z,1.92
2023-04-27T15:18:50.805Z,1.70
2023-04-27T15:21:22.312Z,2.20
2023-04-27T15:23:49.303Z,2.08
2023-04-27T15:26:19.230Z,2.60
2023-04-27T15:28:46.224Z,4.22
2023-04-27T15:31:15.720Z,2.25
2023-04-27T15:33:42.730Z,2.20
2023-04-27T15:36:11.821Z,1.98
2023-04-27T15:38:41.191Z,1.88
2023-04-27T15:41:09.887Z,1.90
2023-04-27T15:43:36.974Z,1.90
2023-04-27T15:46:06.915Z,2.80
2023-04-27T15:48:36.784Z,2.10
2023-04-27T15:51:08.927Z,1.77
2023-04-27T15:53:37.622Z,1.90
2023-04-27T15:56:04.926Z,1.88
2023-04-27T15:58:37.186Z,2.10
2023-04-27T16:01:04.436Z,1.88
2023-04-27T16:03:33.450Z,1.80
2023-04-27T16:06:00.669Z,2.08
2023-04-27T16:10:56.244Z,1.80
2023-04-27T16:15:51.191Z,2.10
2023-04-27T16:18:18.298Z,1.90
2023-04-27T16:20:48.082Z,1.60
2023-04-27T16:23:17.610Z,1.70
2023-04-27T16:25:47.038Z,1.85
2023-04-27T16:28:18.022Z,1.77
2023-04-27T16:30:47.078Z,1.60
2023-04-27T16:33:14.155Z,1.90
2023-04-27T16:35:41.107Z,2.10
2023-04-27T16:38:08.059Z,1.77
2023-04-27T16:40:35.005Z,1.90
2023-04-27T16:43:03.403Z,1.70
2023-04-27T16:45:30.423Z,2.10
2023-04-27T16:47:59.577Z,1.83
2023-04-27T16:50:31.555Z,1.95
2023-04-27T16:53:09.479Z,1.70
2023-04-27T16:55:41.148Z,1.70
2023-04-27T16:58:08.159Z,1.80
2023-04-27T17:01:29.809Z,1.80
2023-04-27T17:04:02.229Z,2.03
2023-04-27T17:06:31.546Z,1.60
2023-04-27T17:09:04.716Z,1.60
2023-04-27T17:11:33.973Z,1.60
2023-04-27T17:14:02.964Z,15.98
2023-04-27T17:16:29.997Z,4.00
2023-04-27T17:18:58.960Z,1.80
2023-04-27T17:21:28.531Z,1.90
2023-04-27T17:23:55.699Z,2.00
2023-04-27T17:26:23.424Z,2.30
2023-04-27T17:28:51.831Z,2.22
2023-04-27T17:31:21.421Z,1.80
2023-04-27T17:33:50.775Z,1.70
2023-04-27T17:36:17.818Z,1.90
2023-04-27T17:38:44.846Z,2.08
2023-04-27T17:41:11.980Z,1.73
2023-04-27T17:43:38.908Z,2.10
2023-04-27T17:46:09.743Z,2.30
2023-04-27T17:48:39.091Z,1.70
2023-04-27T17:51:06.113Z,2.00
2023-04-27T17:53:33.013Z,2.25
2023-04-27T17:56:00.243Z,2.15
2023-04-27T17:58:28.110Z,2.28
2023-04-27T18:00:55.074Z,2.25
2023-04-27T18:03:24.538Z,2.40
2023-04-27T18:05:53.674Z,2.40
2023-04-27T18:08:20.632Z,9.13
2023-04-27T18:10:47.599Z,5.70
2023-04-27T18:13:14.570Z,3.20
2023-04-27T18:15:46.119Z,6.90
2023-04-27T18:18:20.664Z,6.60
2023-04-27T18:20:48.296Z,4.50
2023-04-27T18:23:15.463Z,3.50
2023-04-27T18:25:42.339Z,4.20
2023-04-27T18:28:09.298Z,3.00
2023-04-27T18:30:39.043Z,3.13
2023-04-27T18:33:06.230Z,2.80
2023-04-27T18:35:33.302Z,5.22
2023-04-27T18:38:00.383Z,8.10
2023-04-27T18:40:27.289Z,14.48
2023-04-27T18:42:56.876Z,9.25
2023-04-27T18:45:23.932Z,5.32
2023-04-27T18:47:51.147Z,2.88
2023-04-27T18:50:19.162Z,3.78
2023-04-27T18:52:46.718Z,3.53
2023-04-27T18:55:16.968Z,3.88
2023-04-27T18:57:44.600Z,3.50
2023-04-27T19:00:14.992Z,2.90
2023-04-27T19:02:42.469Z,2.70
2023-04-27T19:05:13.871Z,2.80
2023-04-27T19:07:41.368Z,2.80
2023-04-27T19:10:08.956Z,2.28
2023-04-27T19:12:38.618Z,3.15
2023-04-27T19:15:06.519Z,4.05
2023-04-27T19:17:35.855Z,4.70
2023-04-27T19:20:03.587Z,4.38
2023-04-27T19:22:34.373Z,3.17
2023-04-27T19:25:04.437Z,3.58
2023-04-27T19:27:31.453Z,4.10
2023-04-27T19:29:58.893Z,8.35
2023-04-27T19:34:58.551Z,4.65
2023-04-27T19:37:26.888Z,5.05
2023-04-27T19:39:54.817Z,4.72
2023-04-27T19:42:26.398Z,3.70
2023-04-27T19:44:58.856Z,4.10
2023-04-27T19:47:26.039Z,4.45
2023-04-27T19:49:58.467Z,4.25
2023-04-27T19:52:27.956Z,3.35
2023-04-27T19:54:55.851Z,5.78
2023-04-27T19:57:23.254Z,2.92
2023-04-27T19:59:55.045Z,2.80
2023-04-27T20:02:22.104Z,3.97
2023-04-27T20:04:49.331Z,3.22
2023-04-27T20:07:16.637Z,2.70
2023-04-27T20:09:44.046Z,3.17
2023-04-27T20:15:00.821Z,2.80
2023-04-27T20:17:27.902Z,3.10
2023-04-27T20:19:58.032Z,3.10
2023-04-27T20:22:25.041Z,3.28
2023-04-27T20:24:59.345Z,3.28
2023-04-27T20:27:26.600Z,3.35
2023-04-27T20:29:55.876Z,2.85
2023-04-27T20:32:25.616Z,3.15
2023-04-27T20:34:55.124Z,2.75
2023-04-27T20:37:26.192Z,3.05
2023-04-27T20:39:54.038Z,2.92
2023-04-27T20:42:25.543Z,2.88
2023-04-27T20:44:54.875Z,3.22
2023-04-27T20:47:22.344Z,3.13
2023-04-27T20:52:18.545Z,2.90
2023-04-27T20:54:47.569Z,2.80
2023-04-27T20:57:17.148Z,3.33
2023-04-27T20:59:44.341Z,3.45
2023-04-27T21:02:11.362Z,3.25
2023-04-27T21:04:41.282Z,3.33
2023-04-27T21:07:08.506Z,3.20
2023-04-27T21:09:36.250Z,4.90
2023-04-27T21:12:05.726Z,11.52
2023-04-27T21:14:33.816Z,12.15
2023-04-27T21:17:00.895Z,10.20
2023-04-27T21:19:27.913Z,10.02
2023-04-27T21:21:57.386Z,10.40
2023-04-27T21:24:24.655Z,8.32
2023-04-27T21:26:55.962Z,8.68
2023-04-27T21:29:22.924Z,7.93
2023-04-27T21:31:52.705Z,7.45
2023-04-27T21:34:22.070Z,5.22
2023-04-27T21:36:49.049Z,5.35
2023-04-27T21:39:18.496Z,6.03
2023-04-27T21:41:48.916Z,4.97
2023-04-27T21:44:16.155Z,6.10
2023-04-27T21:49:10.953Z,4.93
2023-04-27T21:51:40.527Z,6.30
2023-04-27T21:54:10.024Z,5.35
2023-04-27T21:57:02.293Z,5.70
2023-04-27T21:59:29.347Z,7.22
2023-04-27T22:02:06.497Z,6.40
2023-04-27T22:04:38.524Z,4.43
2023-04-27T22:07:08.266Z,4.60
2023-04-27T22:09:37.621Z,10.35
2023-04-27T22:12:07.353Z,5.85
2023-04-27T22:14:42.846Z,4.40
2023-04-27T22:17:12.573Z,4.20
2023-04-27T22:19:44.201Z,4.80
2023-04-27T22:22:13.286Z,7.07
2023-04-27T22:24:40.276Z,7.05
2023-04-27T22:27:07.210Z,5.00
2023-04-27T22:29:34.176Z,5.55
2023-04-27T22:32:01.324Z,5.75
2023-04-27T22:34:31.264Z,5.95
2023-04-27T22:36:58.734Z,5.05
2023-04-27T22:39:25.908Z,4.30
2023-04-27T22:41:52.868Z,4.03
2023-04-27T22:44:19.830Z,4.68
2023-04-27T22:46:46.765Z,4.70
2023-04-27T22:49:15.013Z,5.20
2023-04-27T22:51:44.354Z,5.60
2023-04-27T22:56:41.140Z,4.25
2023-04-27T22:59:08.161Z,3.88
2023-04-27T23:01:35.254Z,3.97
2023-04-27T23:04:02.637Z,3.70
2023-04-27T23:06:30.379Z,3.72
2023-04-27T23:09:00.259Z,3.67
2023-04-27T23:11:32.028Z,4.10
2023-04-27T23:13:59.087Z,3.60
2023-04-27T23:16:26.115Z,3.90
2023-04-27T23:18:53.142Z,3.60
2023-04-27T23:21:20.190Z,4.10
2023-04-27T23:23:48.860Z,3.75
2023-04-27T23:26:16.399Z,3.80
2023-04-27T23:28:43.655Z,3.90
2023-04-27T23:31:10.908Z,5.05
2023-04-27T23:33:40.259Z,4.90
2023-04-27T23:36:07.404Z,4.00
2023-04-27T23:38:34.450Z,3.90
2023-04-27T23:41:02.465Z,4.35
2023-04-27T23:43:29.416Z,3.75
2023-04-27T23:46:00.963Z,3.65
2023-04-27T23:48:27.973Z,3.30
2023-04-27T23:51:02.164Z,3.53
2023-04-27T23:53:29.546Z,3.40
2023-04-27T23:58:24.882Z,3.70
